Aniara — SKJC — position and weather

sailwx.info

Track history (hours):
 
Tides and Currents Weather Stations Pressure Air Temp Water Temp Dewpoint Dewpoint Depression Visibility Wind Speed Wind Dir Waves Ship Positions

Aniara

Last reported at 2014-Nov-19 03:19 UTC. Time now 2014-Nov-28 16:59 UTC.
Position N 49°12' W 127°08'.
Warning: this ship's position is 9 days out of date.

Length 232 m; draft 8.5 m.

Type: Cargo ship. MMSI: 266282000.

Date/timePositionNaut miles runAvg speedWind from/ knotsBaromVisibWave heightAir tempDewpointWater temp
2014-Nov-19 03:19N 49°12' W 127°08'1215.4
2014-Nov-19 02:34N 49°07' W 126°52'1615.6
2014-Nov-19 01:34N 49°00' W 126°31'1615.7
2014-Nov-19 00:33N 48°53' W 126°10'1615.7
2014-Nov-18 23:34N 48°45' W 125°50'1615.6
2014-Nov-18 22:33N 48°37' W 125°28'1615.6
2014-Nov-18 21:34N 48°31' W 125°07'1515.1
2014-Nov-18 20:33N 48°30' W 124°44'1514.7
2014-Nov-18 19:33N 48°25' W 124°24'1414.3
2014-Nov-18 18:33N 48°20' W 124°04'1714.5
2014-Nov-18 17:24N 48°15' W 123°39'1214.0
2014-Nov-18 16:31N 48°10' W 123°23'1515.2
2014-Nov-18 15:33N 48°12' W 123°01'1817.6
2014-Nov-18 14:32N 48°04' W 122°38'1818.5
2014-Nov-18 13:34N 47°47' W 122°26'1818.4
2014-Nov-18 12:34N 47°29' W 122°25'1212.4
2014-Nov-18 11:33N 47°16' W 122°24'1 0.5
2014-Nov-18 09:17N 47°16' W 122°23'0 0.0
2014-Nov-18 07:05N 47°16' W 122°23'0 0.0
2014-Nov-18 06:23N 47°16' W 122°23'0 0.0
2014-Nov-18 01:04N 47°16' W 122°23'0 0.4
2014-Nov-18 00:33N 47°15' W 122°23'4 4.5
2014-Nov-17 23:34N 47°18' W 122°28'9 8.5
2014-Nov-17 22:33N 47°27' W 122°25'2019.6
2014-Nov-17 21:33N 47°46' W 122°27'1918.8
2014-Nov-17 20:33N 48°03' W 122°39'1818.0
2014-Nov-17 19:33N 48°12' W 123°03'1515.4
2014-Nov-17 18:33N 48°11' W 123°26'1817.0
2014-Nov-17 17:30N 48°14' W 123°52'1515.6
2014-Nov-17 16:33N 48°19' W 124°13'1616.3
2014-Nov-17 15:33N 48°25' W 124°35'1515.4
2014-Nov-17 14:33N 48°28' W 124°58'1816.2
2014-Nov-17 13:26N 48°12' W 125°09'8016.2
2014-Nov-17 08:29N 46°52' W 125°16'1516.3
2014-Nov-17 07:33N 46°37' W 125°16'1616.2
2014-Nov-17 06:33N 46°20' W 125°15'1616.0
2014-Nov-17 05:33N 46°04' W 125°15'1616.1
2014-Nov-17 04:33N 45°48' W 125°14'44116.9
2014-Nov-16 02:24N 38°30' W 124°11'1517.8
2014-Nov-16 01:33N 38°16' W 124°05'1817.7
2014-Nov-16 00:33N 37°59' W 123°57'1817.5
2014-Nov-15 23:33N 37°43' W 123°50'3517.2
2014-Nov-15 21:32N 37°11' W 123°30'1717.5
2014-Nov-15 20:33N 36°57' W 123°18'1818.3
2014-Nov-15 19:33N 36°42' W 123°06'1918.2
2014-Nov-15 18:31N 36°26' W 122°53'1718.0
2014-Nov-15 17:33N 36°12' W 122°41'1818.1
2014-Nov-15 16:33N 35°56' W 122°29'1818.2
2014-Nov-15 15:33N 35°41' W 122°17'5917.9
2014-Nov-15 12:17N 34°52' W 121°37'7214.1
2014-Nov-15 07:12N 34°19' W 120°20'811.9
2014-Nov-15 06:32N 34°17' W 120°11'1211.9
2014-Nov-15 05:33N 34°14' W 119°57'1211.6
2014-Nov-15 04:33N 34°11' W 119°44'1211.9
2014-Nov-15 03:31N 34°07' W 119°29'36 0.9
2014-Nov-13 10:25N 33°34' W 119°15'1415.5
2014-Nov-13 09:29N 33°19' W 119°14'1715.3
2014-Nov-13 08:21N 33°03' W 119°09'1314.6
2014-Nov-13 07:30N 32°51' W 119°05'1314.1
2014-Nov-13 06:33N 32°39' W 118°57'1515.0
2014-Nov-13 05:33N 32°26' W 118°48'  
Track history (hours):
 
Tides and Currents Weather Stations Pressure Air Temp Water Temp Dewpoint Dewpoint Depression Visibility Wind Speed Wind Dir Waves Ship Positions

Aniara

Last reported at 2014-Nov-19 03:19 UTC. Time now 2014-Nov-28 16:59 UTC.
Position N 49°12' W 127°08'.
Warning: this ship's position is 9 days out of date.

Length 232 m; draft 8.5 m.

Type: Cargo ship. MMSI: 266282000.

Date/timePositionNaut miles runAvg speedWind from/ knotsBaromVisibWave heightAir tempDewpointWater temp
2014-Nov-19 03:19N 49°12' W 127°08'1215.4
2014-Nov-19 02:34N 49°07' W 126°52'1615.6
2014-Nov-19 01:34N 49°00' W 126°31'1615.7
2014-Nov-19 00:33N 48°53' W 126°10'1615.7
2014-Nov-18 23:34N 48°45' W 125°50'1615.6
2014-Nov-18 22:33N 48°37' W 125°28'1615.6
2014-Nov-18 21:34N 48°31' W 125°07'1515.1
2014-Nov-18 20:33N 48°30' W 124°44'1514.7
2014-Nov-18 19:33N 48°25' W 124°24'1414.3
2014-Nov-18 18:33N 48°20' W 124°04'1714.5
2014-Nov-18 17:24N 48°15' W 123°39'1214.0
2014-Nov-18 16:31N 48°10' W 123°23'1515.2
2014-Nov-18 15:33N 48°12' W 123°01'1817.6
2014-Nov-18 14:32N 48°04' W 122°38'1818.5
2014-Nov-18 13:34N 47°47' W 122°26'1818.4
2014-Nov-18 12:34N 47°29' W 122°25'1212.4
2014-Nov-18 11:33N 47°16' W 122°24'1 0.5
2014-Nov-18 09:17N 47°16' W 122°23'0 0.0
2014-Nov-18 07:05N 47°16' W 122°23'0 0.0
2014-Nov-18 06:23N 47°16' W 122°23'0 0.0
2014-Nov-18 01:04N 47°16' W 122°23'0 0.4
2014-Nov-18 00:33N 47°15' W 122°23'4 4.5
2014-Nov-17 23:34N 47°18' W 122°28'9 8.5
2014-Nov-17 22:33N 47°27' W 122°25'2019.6
2014-Nov-17 21:33N 47°46' W 122°27'1918.8
2014-Nov-17 20:33N 48°03' W 122°39'1818.0
2014-Nov-17 19:33N 48°12' W 123°03'1515.4
2014-Nov-17 18:33N 48°11' W 123°26'1817.0
2014-Nov-17 17:30N 48°14' W 123°52'1515.6
2014-Nov-17 16:33N 48°19' W 124°13'1616.3
2014-Nov-17 15:33N 48°25' W 124°35'1515.4
2014-Nov-17 14:33N 48°28' W 124°58'1816.2
2014-Nov-17 13:26N 48°12' W 125°09'8016.2
2014-Nov-17 08:29N 46°52' W 125°16'1516.3
2014-Nov-17 07:33N 46°37' W 125°16'1616.2
2014-Nov-17 06:33N 46°20' W 125°15'1616.0
2014-Nov-17 05:33N 46°04' W 125°15'1616.1
2014-Nov-17 04:33N 45°48' W 125°14'44116.9
2014-Nov-16 02:24N 38°30' W 124°11'1517.8
2014-Nov-16 01:33N 38°16' W 124°05'1817.7
2014-Nov-16 00:33N 37°59' W 123°57'1817.5
2014-Nov-15 23:33N 37°43' W 123°50'3517.2
2014-Nov-15 21:32N 37°11' W 123°30'1717.5
2014-Nov-15 20:33N 36°57' W 123°18'1818.3
2014-Nov-15 19:33N 36°42' W 123°06'1918.2
2014-Nov-15 18:31N 36°26' W 122°53'1718.0
2014-Nov-15 17:33N 36°12' W 122°41'1818.1
2014-Nov-15 16:33N 35°56' W 122°29'1818.2
2014-Nov-15 15:33N 35°41' W 122°17'5917.9
2014-Nov-15 12:17N 34°52' W 121°37'7214.1
2014-Nov-15 07:12N 34°19' W 120°20'811.9
2014-Nov-15 06:32N 34°17' W 120°11'1211.9
2014-Nov-15 05:33N 34°14' W 119°57'1211.6
2014-Nov-15 04:33N 34°11' W 119°44'1211.9
2014-Nov-15 03:31N 34°07' W 119°29'36 0.9
2014-Nov-13 10:25N 33°34' W 119°15'1415.5
2014-Nov-13 09:29N 33°19' W 119°14'1715.3
2014-Nov-13 08:21N 33°03' W 119°09'1314.6
2014-Nov-13 07:30N 32°51' W 119°05'1314.1
2014-Nov-13 06:33N 32°39' W 118°57'1515.0
2014-Nov-13 05:33N 32°26' W 118°48'  

Dump ship's entire track history